Time;durP1;ratioP1;P1;durP2;ratioP2;P2;SDS_P1;SDS_P2;PMS_P1;PMS_P2;Temp;Humidity;BMP_temperature;BMP_pressure;BME280_temperature;BME280_humidity;BME280_pressure;Samples;Min_cycle;Max_cycle;Signal;HPM_P1;HPM_P2
2022/07/24 00:00:18;;;;;;;2.07;1.63;;;14.90;99.90;14.50;100414;;;;580042;244;24158;-81
2022/07/24 00:02:46;;;;;;;2.20;1.60;;;15.00;99.90;14.50;100401;;;;589034;244;24081;-85
2022/07/24 00:05:13;;;;;;;4.33;1.83;;;15.10;99.90;14.60;100395;;;;580073;244;24069;-85
2022/07/24 00:07:45;;;;;;;3.43;1.90;;;15.20;99.90;14.70;100396;;;;579742;244;24070;-75
2022/07/24 00:10:13;;;;;;;2.63;1.67;;;15.20;99.90;14.70;100392;;;;583828;244;24161;-81
2022/07/24 00:12:41;;;;;;;3.50;1.73;;;15.30;99.90;14.80;100389;;;;579407;244;24082;-83
2022/07/24 00:15:05;;;;;;;4.57;1.43;;;15.30;99.90;14.80;100385;;;;587335;244;24079;-80
2022/07/24 00:17:34;;;;;;;4.73;2.50;;;15.40;99.90;14.80;100379;;;;579418;244;24131;-78
2022/07/24 00:20:02;;;;;;;2.90;1.70;;;15.40;99.90;14.80;100375;;;;578495;244;24119;-77
2022/07/24 00:22:30;;;;;;;1.30;1.30;;;15.40;99.90;14.80;100377;;;;578148;244;24134;-74
2022/07/24 00:24:58;;;;;;;1.97;1.83;;;15.30;99.90;14.70;100371;;;;578107;244;24109;-75
2022/07/24 00:27:26;;;;;;;1.50;1.40;;;15.30;99.90;14.70;100366;;;;578132;244;24117;-79
2022/07/24 00:29:53;;;;;;;1.70;1.50;;;15.20;99.90;14.70;100367;;;;578175;244;24065;-79
2022/07/24 00:32:21;;;;;;;1.80;1.70;;;15.20;99.90;14.70;100369;;;;577972;244;24110;-78
2022/07/24 00:34:49;;;;;;;3.77;1.67;;;15.20;99.90;14.60;100369;;;;586697;242;24155;-79
2022/07/24 00:37:17;;;;;;;1.77;1.67;;;15.20;99.90;14.60;100369;;;;577796;244;24095;-83
2022/07/24 00:39:47;;;;;;;1.40;1.30;;;15.10;99.90;14.50;100370;;;;577907;244;24061;-80
2022/07/24 00:42:17;;;;;;;1.50;1.40;;;15.10;99.90;14.50;100371;;;;577854;244;24079;-79
2022/07/24 00:44:41;;;;;;;1.73;1.60;;;15.00;99.90;14.50;100368;;;;586542;244;24123;-79
2022/07/24 00:47:09;;;;;;;2.47;1.67;;;15.00;99.90;14.50;100355;;;;586837;244;24130;-79
2022/07/24 00:49:37;;;;;;;5.03;1.63;;;15.00;99.90;14.50;100365;;;;577925;244;24064;-77
2022/07/24 00:52:05;;;;;;;1.70;1.53;;;15.10;99.90;14.60;100362;;;;578398;244;24083;-78
2022/07/24 00:54:33;;;;;;;3.80;1.40;;;15.10;99.90;14.60;100354;;;;578338;242;24063;-77
2022/07/24 00:57:01;;;;;;;2.87;1.37;;;15.10;99.90;14.60;100356;;;;588833;244;24113;-80
2022/07/24 00:59:28;;;;;;;2.43;1.43;;;15.10;99.90;14.50;100358;;;;579502;244;24079;-80
2022/07/24 01:01:56;;;;;;;2.53;1.53;;;15.10;99.90;14.50;100358;;;;579270;244;24184;-83
2022/07/24 01:04:24;;;;;;;1.60;1.50;;;15.10;99.90;14.60;100354;;;;579198;244;24067;-82
2022/07/24 01:06:55;;;;;;;3.67;1.50;;;15.10;99.90;14.60;100356;;;;578687;244;24125;-83
2022/07/24 01:09:20;;;;;;;1.40;1.40;;;15.10;99.90;14.60;100359;;;;578377;244;24080;-84
2022/07/24 01:11:48;;;;;;;1.40;1.40;;;15.10;99.90;14.60;100357;;;;585122;244;24126;-85
2022/07/24 01:14:19;;;;;;;2.47;1.70;;;15.10;99.90;14.70;100360;;;;578195;244;24134;-83
2022/07/24 01:16:44;;;;;;;3.13;2.43;;;15.20;99.90;14.70;100358;;;;573014;244;36250;-83
2022/07/24 01:19:13;;;;;;;2.03;1.93;;;15.30;99.90;14.80;100364;;;;582162;244;38586;-82
2022/07/24 01:21:50;;;;;;;1.53;1.43;;;15.30;99.90;14.70;100356;;;;578198;244;24069;-77
2022/07/24 01:24:18;;;;;;;3.33;1.63;;;15.30;99.90;14.80;100355;;;;577946;244;24194;-76
2022/07/24 01:26:49;;;;;;;1.97;1.30;;;15.30;99.90;14.80;100358;;;;578104;244;24112;-77
2022/07/24 01:29:14;;;;;;;3.37;1.53;;;15.30;99.90;14.80;100365;;;;586635;244;24083;-75
2022/07/24 01:31:42;;;;;;;3.53;1.50;;;15.30;99.90;14.80;100360;;;;586978;244;24084;-74
2022/07/24 01:34:10;;;;;;;1.20;1.20;;;15.40;99.90;14.90;100364;;;;587112;244;25111;-76
2022/07/24 01:36:38;;;;;;;1.50;1.40;;;15.40;99.90;14.90;100358;;;;587127;244;24084;-76
2022/07/24 01:39:06;;;;;;;1.37;1.30;;;15.50;99.90;15.00;100357;;;;577940;244;24093;-75
2022/07/24 01:41:34;;;;;;;1.40;1.30;;;15.50;99.90;15.00;100354;;;;577847;244;24075;-75
2022/07/24 01:44:02;;;;;;;1.70;1.10;;;15.60;99.90;15.00;100357;;;;577834;244;24099;-75
2022/07/24 01:46:30;;;;;;;1.77;1.20;;;15.60;99.90;15.00;100355;;;;586754;244;24092;-75
2022/07/24 01:49:01;;;;;;;1.03;1.03;;;15.60;99.90;15.00;100354;;;;577907;244;24073;-74
2022/07/24 01:51:26;;;;;;;1.20;1.20;;;15.60;99.90;15.00;100351;;;;577679;244;24111;-75
2022/07/24 01:53:54;;;;;;;1.30;1.20;;;15.60;99.90;15.00;100356;;;;577852;244;24135;-75
2022/07/24 01:56:22;;;;;;;2.97;1.40;;;15.60;99.90;15.10;100362;;;;577910;244;24190;-76
2022/07/24 01:58:51;;;;;;;0.90;0.90;;;15.70;99.90;15.10;100360;;;;577733;244;24144;-75
2022/07/24 02:01:19;;;;;;;1.30;1.20;;;15.60;99.90;15.10;100357;;;;577807;244;24101;-75
2022/07/24 02:03:48;;;;;;;1.03;1.00;;;15.70;99.90;15.20;100365;;;;577870;244;24071;-75
2022/07/24 02:06:15;;;;;;;1.10;1.00;;;15.70;99.90;15.20;100369;;;;577825;243;24102;-75
2022/07/24 02:08:43;;;;;;;1.20;1.10;;;15.80;99.90;15.30;100364;;;;579122;244;24074;-77
2022/07/24 02:11:11;;;;;;;1.63;0.87;;;15.80;99.90;15.30;100367;;;;578766;244;24142;-75
2022/07/24 02:13:38;;;;;;;1.77;1.20;;;15.90;99.90;15.30;100377;;;;578554;244;24075;-76
2022/07/24 02:16:10;;;;;;;0.90;0.90;;;15.90;99.90;15.40;100370;;;;578473;244;24093;-76
2022/07/24 02:18:35;;;;;;;1.50;0.90;;;15.90;99.90;15.40;100367;;;;577857;244;24092;-75
2022/07/24 02:21:04;;;;;;;1.10;1.03;;;16.00;99.90;15.40;100375;;;;578422;244;24068;-75
2022/07/24 02:23:32;;;;;;;1.70;0.93;;;16.00;99.90;15.50;100382;;;;578223;244;24091;-75
2022/07/24 02:26:00;;;;;;;0.77;0.73;;;16.00;99.90;15.50;100378;;;;587144;244;24071;-76
2022/07/24 02:28:27;;;;;;;0.93;0.90;;;16.00;99.90;15.50;100390;;;;578045;244;24112;-74
2022/07/24 02:30:55;;;;;;;1.00;1.00;;;16.10;99.90;15.50;100390;;;;578175;244;24065;-76
2022/07/24 02:33:23;;;;;;;1.33;1.00;;;16.10;99.90;15.50;100382;;;;587599;244;24071;-80
2022/07/24 02:35:51;;;;;;;1.03;0.80;;;16.10;99.90;15.50;100375;;;;578550;244;24132;-81
2022/07/24 02:38:19;;;;;;;0.83;0.83;;;16.10;99.90;15.50;100380;;;;587130;241;24080;-79
2022/07/24 02:40:47;;;;;;;1.00;1.00;;;16.00;99.90;15.50;100384;;;;578105;244;24065;-78
2022/07/24 02:43:19;;;;;;;0.90;0.90;;;16.00;99.90;15.50;100386;;;;578082;244;24115;-81
2022/07/24 02:45:44;;;;;;;1.20;1.10;;;16.10;99.90;15.50;100387;;;;572403;244;44142;-77
2022/07/24 02:48:11;;;;;;;1.10;1.10;;;16.10;99.90;15.50;100387;;;;573091;244;46147;-83
2022/07/24 02:50:39;;;;;;;0.80;0.80;;;16.10;99.90;15.50;100389;;;;578038;244;24073;-82
2022/07/24 02:53:07;;;;;;;0.90;0.90;;;16.10;99.90;15.50;100392;;;;577888;244;24071;-77
2022/07/24 02:55:35;;;;;;;0.90;0.90;;;16.10;99.90;15.60;100396;;;;578050;244;24112;-81
2022/07/24 02:58:03;;;;;;;1.10;1.10;;;16.10;99.90;15.60;100391;;;;573216;244;44168;-80
2022/07/24 03:00:31;;;;;;;1.58;1.48;;;16.20;99.90;15.60;100401;;;;573086;244;35230;-78
2022/07/24 03:02:59;;;;;;;1.20;1.20;;;16.30;99.90;15.60;100396;;;;577978;244;24106;-82
2022/07/24 03:05:27;;;;;;;0.77;0.77;;;16.20;99.90;15.70;100397;;;;577832;244;24134;-81
2022/07/24 03:07:58;;;;;;;1.17;1.17;;;16.30;99.90;15.70;100393;;;;578041;244;24108;-79
2022/07/24 03:10:23;;;;;;;1.65;1.55;;;16.30;99.90;15.70;100394;;;;577868;244;56847;-79
2022/07/24 03:12:51;;;;;;;2.37;1.33;;;16.30;99.90;15.70;100399;;;;578004;244;24084;-81
2022/07/24 03:15:19;;;;;;;2.20;1.50;;;16.30;99.90;15.80;100405;;;;577992;244;24088;-82
2022/07/24 03:17:50;;;;;;;2.03;1.83;;;16.30;99.90;15.80;100401;;;;578331;242;24080;-82
2022/07/24 03:20:17;;;;;;;2.47;2.27;;;16.30;99.90;15.80;100399;;;;585151;244;24089;-84
2022/07/24 03:22:45;;;;;;;3.47;3.20;;;16.40;99.90;15.80;100396;;;;588007;244;24105;-77
2022/07/24 03:25:13;;;;;;;2.40;2.30;;;16.40;99.90;15.90;100404;;;;587880;244;24095;-84
2022/07/24 03:27:42;;;;;;;7.03;3.23;;;16.50;99.90;15.90;100413;;;;578756;244;24096;-80
2022/07/24 03:30:10;;;;;;;3.47;3.10;;;16.40;99.90;15.90;100411;;;;578642;244;24080;-83
2022/07/24 03:32:38;;;;;;;4.90;3.30;;;16.50;99.90;15.90;100414;;;;578524;244;24083;-77
2022/07/24 03:35:06;;;;;;;4.20;3.73;;;16.50;99.90;15.90;100406;;;;578804;244;24137;-77
2022/07/24 03:37:34;;;;;;;6.70;3.97;;;16.50;99.90;15.90;100421;;;;587528;244;24070;-76
2022/07/24 03:40:02;;;;;;;4.27;3.93;;;16.50;99.90;16.00;100410;;;;587038;244;24090;-76
2022/07/24 03:42:33;;;;;;;7.43;4.57;;;16.50;99.90;16.00;100408;;;;578056;244;24124;-75
2022/07/24 03:44:58;;;;;;;5.10;4.23;;;16.50;99.90;16.00;100411;;;;583008;244;24104;-76
2022/07/24 03:47:26;;;;;;;7.17;5.00;;;16.50;99.90;16.00;100407;;;;578138;244;24111;-78
2022/07/24 03:49:54;;;;;;;7.23;4.47;;;16.50;99.90;16.10;100407;;;;578183;244;24090;-76
2022/07/24 03:52:22;;;;;;;4.57;4.17;;;16.60;99.90;16.10;100412;;;;586953;244;24117;-77
2022/07/24 03:54:50;;;;;;;4.53;4.13;;;16.70;99.90;16.20;100413;;;;578006;244;24122;-76
2022/07/24 03:57:18;;;;;;;4.73;4.33;;;16.70;99.90;16.30;100411;;;;578201;244;24073;-76
2022/07/24 03:59:46;;;;;;;9.40;4.33;;;16.80;99.90;16.30;100415;;;;578265;244;24154;-74
2022/07/24 04:02:13;;;;;;;5.63;4.07;;;16.90;99.90;16.30;100418;;;;578241;244;24096;-74
2022/07/24 04:04:41;;;;;;;5.03;4.27;;;16.90;99.90;16.40;100418;;;;578119;244;24103;-74
2022/07/24 04:07:10;;;;;;;6.70;5.30;;;17.00;99.90;16.40;100420;;;;581983;244;46162;-75
2022/07/24 04:09:39;;;;;;;5.33;4.70;;;17.00;99.90;16.40;100411;;;;579085;244;24090;-76
2022/07/24 04:12:10;;;;;;;5.90;4.10;;;17.00;99.90;16.40;100411;;;;579196;244;24137;-76
2022/07/24 04:14:35;;;;;;;5.90;4.80;;;17.00;99.90;16.50;100418;;;;583741;244;24111;-83
2022/07/24 04:17:03;;;;;;;5.03;4.30;;;17.00;99.90;16.50;100426;;;;578741;244;24071;-80
2022/07/24 04:19:32;;;;;;;4.57;4.03;;;17.10;99.90;16.50;100423;;;;578452;244;24087;-75
2022/07/24 04:22:01;;;;;;;5.40;4.47;;;17.10;99.90;16.50;100427;;;;578349;244;24122;-83
2022/07/24 04:24:29;;;;;;;5.70;4.43;;;17.10;99.90;16.60;100418;;;;578411;244;24124;-82
2022/07/24 04:26:56;;;;;;;4.40;4.00;;;17.10;99.90;16.60;100425;;;;578231;244;24112;-76
2022/07/24 04:29:24;;;;;;;6.83;4.13;;;17.10;99.90;16.60;100436;;;;578343;242;24057;-77
2022/07/24 04:31:52;;;;;;;7.60;4.57;;;17.10;99.90;16.60;100433;;;;579807;244;24108;-81
2022/07/24 04:34:20;;;;;;;4.80;4.27;;;17.20;99.90;16.60;100432;;;;579110;244;24074;-79
2022/07/24 04:36:48;;;;;;;4.80;4.40;;;17.20;99.90;16.60;100437;;;;587895;244;24087;-81
2022/07/24 04:39:19;;;;;;;6.60;4.30;;;17.20;99.90;16.60;100435;;;;578914;244;24071;-75
2022/07/24 04:41:44;;;;;;;6.63;3.70;;;17.20;99.90;16.60;100432;;;;577881;244;24130;-83
2022/07/24 04:44:12;;;;;;;5.20;3.90;;;17.20;99.90;16.70;100442;;;;578503;244;24104;-77
2022/07/24 04:46:40;;;;;;;7.22;5.35;;;17.20;99.90;16.70;100437;;;;573621;244;57186;-75
2022/07/24 04:49:08;;;;;;;6.00;5.13;;;17.20;99.90;16.70;100445;;;;578327;244;24100;-84
2022/07/24 04:51:36;;;;;;;5.63;5.03;;;17.30;99.90;16.80;100444;;;;578282;244;24125;-83
2022/07/24 04:54:04;;;;;;;5.53;4.30;;;17.40;99.90;16.90;100443;;;;578288;244;24114;-84
2022/07/24 04:56:32;;;;;;;6.77;4.73;;;17.50;99.90;17.10;100437;;;;578193;244;24107;-83
2022/07/24 04:59:01;;;;;;;8.90;4.63;;;17.60;99.90;17.10;100433;;;;578603;244;24067;-81
2022/07/24 05:01:28;;;;;;;5.40;4.20;;;17.80;99.90;17.30;100437;;;;578549;244;24119;-83
2022/07/24 05:03:58;;;;;;;3.70;3.27;;;18.00;99.90;17.40;100446;;;;587597;244;24106;-84
2022/07/24 05:06:25;;;;;;;5.43;3.33;;;17.90;99.90;17.60;100442;;;;578384;244;25417;-79
2022/07/24 05:08:53;;;;;;;3.33;2.77;;;18.10;99.90;17.70;100441;;;;577908;244;24111;-76
2022/07/24 05:11:20;;;;;;;3.23;2.93;;;18.30;99.90;17.80;100445;;;;577903;244;24066;-75
2022/07/24 05:13:48;;;;;;;4.23;2.67;;;18.40;99.90;17.90;100456;;;;577818;244;24114;-78
2022/07/24 05:16:16;;;;;;;3.43;2.70;;;18.50;99.90;18.00;100456;;;;578120;244;24112;-82
2022/07/24 05:18:44;;;;;;;2.83;2.63;;;18.50;99.90;18.10;100450;;;;577954;244;24112;-75
2022/07/24 05:21:14;;;;;;;2.90;2.50;;;18.60;99.90;18.20;100453;;;;578058;244;24126;-76
2022/07/24 05:23:43;;;;;;;3.27;2.53;;;18.80;99.90;18.60;100456;;;;578294;244;24122;-78
2022/07/24 05:26:08;;;;;;;3.73;2.23;;;19.00;99.90;20.00;100457;;;;577190;244;24128;-76
2022/07/24 05:28:36;;;;;;;2.60;2.40;;;20.20;99.90;21.70;100450;;;;578060;244;23163;-77
2022/07/24 05:31:04;;;;;;;4.07;2.60;;;22.00;99.90;22.00;100459;;;;578165;244;24151;-78
2022/07/24 05:33:32;;;;;;;4.20;2.30;;;22.50;99.90;22.00;100456;;;;578721;244;24072;-85
2022/07/24 05:36:00;;;;;;;2.70;2.00;;;22.50;99.90;22.00;100461;;;;579108;244;24115;-85
2022/07/24 05:38:27;;;;;;;2.70;2.20;;;22.60;99.90;21.70;100465;;;;578978;244;24102;-80
2022/07/24 05:40:56;;;;;;;2.70;2.23;;;22.40;99.90;21.70;100471;;;;578849;242;24091;-82
2022/07/24 05:43:26;;;;;;;6.57;2.50;;;22.20;99.90;21.70;100473;;;;588823;244;24108;-83
2022/07/24 05:45:51;;;;;;;3.53;2.20;;;22.30;99.90;21.30;100471;;;;582963;238;23130;-86
2022/07/24 05:48:20;;;;;;;2.43;2.10;;;21.60;99.90;20.80;100483;;;;580799;242;23079;-86
2022/07/24 05:50:49;;;;;;;3.67;2.20;;;21.00;99.90;20.20;100478;;;;580882;242;23065;-87
2022/07/24 05:53:17;;;;;;;2.13;2.03;;;20.50;99.90;19.80;100480;;;;582094;243;23113;-86
2022/07/24 05:55:45;;;;;;;2.87;2.53;;;20.50;99.90;19.50;100482;;;;579572;243;24067;-84
2022/07/24 05:58:16;;;;;;;4.67;2.40;;;20.20;99.90;19.30;100485;;;;583038;243;24044;-85
2022/07/24 06:00:45;;;;;;;3.53;2.20;;;19.90;99.90;19.10;100486;;;;582525;243;24054;-84
2022/07/24 06:03:12;;;;;;;3.17;2.13;;;19.70;99.90;19.00;100495;;;;583226;243;24041;-84
2022/07/24 06:05:37;;;;;;;2.17;2.07;;;19.60;99.90;19.00;100496;;;;578899;244;24057;-85
2022/07/24 06:08:08;;;;;;;2.07;1.93;;;19.50;99.90;19.10;100501;;;;581061;242;24080;-86
2022/07/24 06:10:33;;;;;;;2.33;1.93;;;19.50;99.90;19.00;100497;;;;586731;243;24106;-83
2022/07/24 06:13:04;;;;;;;2.07;1.97;;;19.50;99.90;19.00;100494;;;;593845;238;24038;-83
2022/07/24 06:15:29;;;;;;;4.10;2.40;;;19.50;99.90;19.00;100501;;;;591633;238;24134;-83
2022/07/24 06:17:57;;;;;;;2.23;2.00;;;19.50;99.90;19.00;100501;;;;593613;238;24030;-87
2022/07/24 06:20:25;;;;;;;2.17;2.07;;;19.50;99.90;19.10;100504;;;;602833;238;24077;-85
2022/07/24 06:22:53;;;;;;;1.53;1.53;;;19.60;99.90;19.20;100508;;;;602908;238;24034;-87
2022/07/24 06:25:21;;;;;;;2.67;2.37;;;19.70;99.90;19.40;100504;;;;593394;238;24094;-87
2022/07/24 06:27:49;;;;;;;4.93;1.90;;;19.80;99.90;19.60;100501;;;;592225;238;24064;-86
2022/07/24 06:30:22;;;;;;;1.90;1.80;;;20.10;99.90;19.80;100503;;;;593460;238;25076;-86
2022/07/24 06:32:51;;;;;;;4.93;2.00;;;20.40;99.90;20.00;100514;;;;602840;238;24096;-87
2022/07/24 06:35:22;;;;;;;4.40;2.30;;;20.40;99.90;20.20;100506;;;;592774;238;24206;-87
2022/07/24 06:37:51;;;;;;;3.60;2.60;;;20.70;99.90;21.30;100511;;;;602395;238;24070;-85
2022/07/24 06:40:15;;;;;;;2.43;1.50;;;21.50;99.90;22.70;100506;;;;592573;238;24037;-85
2022/07/24 06:42:43;;;;;;;2.47;1.70;;;22.80;99.90;25.20;100504;;;;592965;237;23072;-85
2022/07/24 06:45:11;;;;;;;2.30;1.60;;;25.00;99.90;27.70;100522;;;;592900;238;23065;-85
2022/07/24 06:47:39;;;;;;;1.57;1.50;;;27.60;99.90;29.50;100514;;;;601964;238;23055;-86
2022/07/24 06:50:10;;;;;;;3.63;1.37;;;29.60;99.90;31.30;100520;;;;592161;238;23076;-89
2022/07/24 06:52:35;;;;;;;4.12;1.60;;;31.30;96.80;33.00;100519;;;;602512;236;23051;-86
2022/07/24 06:55:03;;;;;;;4.53;1.50;;;33.30;89.30;32.90;100525;;;;604471;236;23058;-86
2022/07/24 06:57:33;;;;;;;4.43;2.47;;;33.50;81.40;32.00;100529;;;;600030;238;23045;-84
2022/07/24 07:00:02;;;;;;;2.15;1.55;;;32.90;77.00;30.60;100527;;;;599354;239;24059;-86
2022/07/24 07:02:26;;;;;;;1.48;1.30;;;31.80;77.00;29.40;100531;;;;599225;239;23085;-84
2022/07/24 07:05:10;;;;;;;3.05;2.83;;;30.60;78.50;28.40;100535;;;;599746;239;24093;-85
2022/07/24 07:07:38;;;;;;;2.22;1.48;;;29.50;81.10;27.30;100533;;;;590144;240;23027;-85
2022/07/24 07:10:07;;;;;;;1.40;1.37;;;28.30;84.80;26.20;100541;;;;599415;239;23074;-83
2022/07/24 07:12:34;;;;;;;1.50;1.40;;;27.30;88.00;25.00;100545;;;;589906;240;23035;-83
2022/07/24 07:15:06;;;;;;;1.37;1.33;;;25.10;93.30;24.20;100528;;;;589848;240;24022;-83
2022/07/24 07:17:34;;;;;;;1.60;1.50;;;24.60;95.70;23.90;100535;;;;586782;240;23021;-84
2022/07/24 07:20:06;;;;;;;3.90;1.73;;;24.50;95.70;23.40;100535;;;;589870;240;23078;-84
2022/07/24 07:22:33;;;;;;;3.63;1.70;;;24.10;97.50;23.00;100535;;;;589346;240;24064;-83
2022/07/24 07:24:58;;;;;;;1.40;1.40;;;23.60;99.40;22.70;100533;;;;589567;240;23064;-84
2022/07/24 07:27:27;;;;;;;2.63;2.00;;;23.30;99.90;22.50;100540;;;;589891;240;24057;-87
2022/07/24 07:29:54;;;;;;;1.93;1.83;;;23.00;99.90;22.30;100541;;;;599114;239;24049;-86
2022/07/24 07:32:22;;;;;;;2.03;1.57;;;22.80;99.90;22.30;100546;;;;589271;240;24081;-86
2022/07/24 07:34:50;;;;;;;1.57;1.47;;;22.80;99.90;22.40;100545;;;;599625;240;24026;-87
2022/07/24 07:37:18;;;;;;;1.60;1.50;;;22.80;99.90;22.20;100544;;;;599629;240;23997;-86
2022/07/24 07:39:46;;;;;;;2.73;1.47;;;22.60;99.90;22.10;100560;;;;599763;240;24014;-87
2022/07/24 07:42:17;;;;;;;1.90;1.73;;;22.50;99.90;22.10;100556;;;;590532;240;24041;-88
2022/07/24 07:44:43;;;;;;;1.50;1.30;;;22.70;99.90;22.40;100551;;;;590234;240;24013;-88
2022/07/24 07:47:11;;;;;;;1.53;1.53;;;22.70;99.90;22.80;100557;;;;599404;240;24030;-84
2022/07/24 07:49:42;;;;;;;1.47;1.40;;;23.10;99.90;23.30;100555;;;;599046;240;24043;-85
2022/07/24 07:52:07;;;;;;;2.37;1.67;;;23.50;99.90;23.80;100555;;;;589481;240;23067;-88
2022/07/24 07:54:35;;;;;;;1.43;1.13;;;24.10;99.90;24.10;100557;;;;599411;240;24043;-88
2022/07/24 07:57:03;;;;;;;1.30;1.30;;;24.50;99.90;24.30;100565;;;;589616;240;24020;-85
2022/07/24 07:59:31;;;;;;;1.60;1.40;;;24.70;99.90;24.20;100565;;;;590299;240;24017;-83
2022/07/24 08:01:59;;;;;;;3.70;1.70;;;24.70;99.90;23.90;100563;;;;599404;240;23998;-85
2022/07/24 08:04:30;;;;;;;1.57;1.30;;;24.40;99.90;23.80;100568;;;;599691;238;24049;-85
2022/07/24 08:06:54;;;;;;;2.57;1.57;;;24.30;99.90;23.70;100570;;;;587686;239;24004;-85
2022/07/24 08:09:22;;;;;;;1.67;1.47;;;24.20;99.90;23.80;100569;;;;599915;239;24078;-84
2022/07/24 08:11:50;;;;;;;1.67;1.40;;;24.20;99.90;23.50;100582;;;;599803;239;24012;-84
2022/07/24 08:14:18;;;;;;;2.60;1.97;;;24.10;99.90;23.20;100581;;;;599601;239;24033;-85
2022/07/24 08:16:46;;;;;;;1.70;1.60;;;23.80;99.90;23.10;100580;;;;599845;239;24034;-84
2022/07/24 08:19:17;;;;;;;1.60;1.50;;;23.60;99.90;23.00;100583;;;;599444;239;24004;-83
2022/07/24 08:21:43;;;;;;;1.70;1.60;;;23.40;99.90;22.90;100590;;;;599197;239;24092;-83
2022/07/24 08:24:11;;;;;;;1.90;1.80;;;23.20;99.90;22.80;100588;;;;599252;239;24022;-83
2022/07/24 08:26:40;;;;;;;2.40;1.63;;;23.00;99.90;22.50;100591;;;;599123;239;24001;-83
2022/07/24 08:29:08;;;;;;;1.77;1.67;;;23.00;99.90;22.30;100592;;;;599282;239;24047;-85
2022/07/24 08:31:39;;;;;;;1.80;1.70;;;22.80;99.90;22.40;100583;;;;589775;240;24059;-84
2022/07/24 08:34:04;;;;;;;1.80;1.70;;;22.80;99.90;22.50;100581;;;;589923;240;26247;-85
2022/07/24 08:36:32;;;;;;;3.13;1.70;;;22.90;99.90;23.00;100582;;;;599653;239;24001;-83
2022/07/24 08:39:03;;;;;;;4.20;1.60;;;23.80;99.90;23.50;100579;;;;590273;240;24105;-83
2022/07/24 08:41:32;;;;;;;3.70;1.60;;;23.80;99.90;24.00;100588;;;;599178;239;24030;-83
2022/07/24 08:43:59;;;;;;;3.23;1.70;;;24.30;99.90;24.20;100587;;;;593217;238;24037;-82
2022/07/24 08:46:24;;;;;;;2.27;1.90;;;24.60;99.90;24.10;100596;;;;590872;243;24100;-83
2022/07/24 08:48:52;;;;;;;1.70;1.60;;;24.60;99.90;24.00;100601;;;;593331;238;24150;-85
2022/07/24 08:51:21;;;;;;;1.70;1.60;;;24.40;99.90;23.90;100601;;;;591928;242;24130;-87
2022/07/24 08:53:49;;;;;;;5.03;1.60;;;24.40;99.90;23.90;100596;;;;586632;243;24058;-87
2022/07/24 08:56:17;;;;;;;1.77;1.60;;;24.40;99.90;23.90;100603;;;;594164;238;24103;-87
2022/07/24 08:58:44;;;;;;;2.00;1.90;;;24.40;99.90;23.70;100623;;;;604470;238;24026;-85
2022/07/24 09:01:12;;;;;;;1.80;1.70;;;24.30;99.90;23.30;100619;;;;594929;238;24014;-80
2022/07/24 09:03:43;;;;;;;3.00;1.40;;;23.90;99.90;22.90;100621;;;;594776;238;24018;-86
2022/07/24 09:06:12;;;;;;;1.77;1.67;;;23.50;99.90;22.40;100615;;;;593928;238;24104;-84
2022/07/24 09:08:36;;;;;;;2.33;2.10;;;23.00;99.90;22.00;100615;;;;603497;238;24017;-85
2022/07/24 09:11:07;;;;;;;10.10;2.17;;;22.60;99.90;21.70;100620;;;;604060;238;24088;-83
2022/07/24 09:16:01;;;;;;;2.17;2.00;;;21.70;99.90;21.20;100631;;;;588160;236;24025;-85
2022/07/24 09:18:29;;;;;;;4.87;2.10;;;21.60;99.90;21.10;100632;;;;595042;238;24133;-86
2022/07/24 09:21:06;;;;;;;1.93;1.83;;;21.70;99.90;21.30;100632;;;;594484;238;24032;-87
2022/07/24 09:23:29;;;;;;;2.50;2.30;;;21.70;99.90;21.60;100635;;;;589548;242;24054;-85
2022/07/24 09:25:57;;;;;;;2.07;1.80;;;21.90;99.90;21.90;100635;;;;592084;242;24064;-85
2022/07/24 09:28:23;;;;;;;2.37;2.17;;;22.20;99.90;22.40;100636;;;;582804;242;24089;-85
2022/07/24 09:30:52;;;;;;;2.30;1.67;;;23.50;99.90;23.30;100640;;;;580724;243;24071;-86
2022/07/24 09:33:24;;;;;;;6.10;1.80;;;25.10;99.90;25.10;100638;;;;594134;238;24061;-86
2022/07/24 09:35:49;;;;;;;3.23;1.60;;;26.40;99.90;26.20;100644;;;;590890;238;24061;-84
2022/07/24 09:38:23;;;;;;;2.43;1.70;;;26.30;99.90;27.80;100644;;;;594148;238;23053;-86
2022/07/24 09:40:51;;;;;;;1.47;1.37;;;27.90;99.90;28.80;100651;;;;603048;238;24077;-86
2022/07/24 09:43:24;;;;;;;2.37;1.87;;;29.30;98.20;28.80;100648;;;;593742;238;23081;-86
2022/07/24 09:46:01;;;;;;;4.83;2.10;;;29.50;94.80;28.60;100643;;;;603133;238;23036;-85
2022/07/24 09:48:37;;;;;;;3.00;1.60;;;29.20;93.70;28.40;100649;;;;602267;238;23063;-83
2022/07/24 09:51:10;;;;;;;2.20;1.50;;;28.70;93.30;27.90;100652;;;;581706;243;23123;-86
2022/07/24 09:53:38;;;;;;;1.77;1.67;;;28.70;92.90;27.30;100652;;;;582178;242;23110;-84
2022/07/24 09:56:11;;;;;;;2.17;1.70;;;28.20;93.30;27.00;100654;;;;581637;243;24137;-84
2022/07/24 09:58:42;;;;;;;3.60;1.70;;;27.50;94.10;26.90;100656;;;;592575;238;23198;-84
2022/07/24 10:01:07;;;;;;;2.97;1.60;;;27.50;94.10;27.30;100659;;;;578629;245;23098;-85
2022/07/24 10:03:35;;;;;;;2.53;1.80;;;27.70;94.30;27.30;100661;;;;590517;243;24099;-84
2022/07/24 10:06:03;;;;;;;2.07;1.73;;;27.80;93.00;27.10;100658;;;;602784;238;23036;-85
2022/07/24 10:08:31;;;;;;;2.03;1.90;;;27.60;93.00;26.80;100655;;;;580355;243;23095;-85
2022/07/24 10:10:59;;;;;;;3.00;1.73;;;27.40;93.50;26.50;100663;;;;591339;243;23104;-85
2022/07/24 10:13:30;;;;;;;3.47;1.77;;;27.00;93.80;26.20;100660;;;;593330;238;24010;-85
2022/07/24 10:16:13;;;;;;;1.80;1.70;;;26.70;94.40;25.90;100662;;;;593245;238;23036;-86
2022/07/24 10:18:55;;;;;;;4.27;1.83;;;26.40;94.80;25.50;100668;;;;592141;238;23046;-86
2022/07/24 10:21:33;;;;;;;3.47;1.60;;;26.10;95.30;25.30;100667;;;;603446;238;24101;-88
2022/07/24 10:24:13;;;;;;;3.43;1.80;;;25.80;95.60;25.40;100665;;;;593517;238;23047;-87
2022/07/24 10:26:43;;;;;;;3.40;1.70;;;25.80;96.30;26.00;100668;;;;592739;238;24025;-85
2022/07/24 10:29:14;;;;;;;1.40;1.40;;;26.30;96.00;26.00;100671;;;;603939;236;23038;-87
2022/07/24 10:31:42;;;;;;;1.60;1.50;;;26.40;95.70;25.70;100673;;;;603901;238;23031;-87
2022/07/24 10:34:25;;;;;;;2.60;1.90;;;26.30;95.80;25.40;100682;;;;594039;238;23065;-84
2022/07/24 10:36:55;;;;;;;2.47;1.47;;;25.90;96.40;25.10;100686;;;;592934;238;24038;-86
2022/07/24 10:39:29;;;;;;;2.33;1.70;;;25.70;97.20;25.00;100688;;;;593539;238;23055;-85
2022/07/24 10:42:03;;;;;;;2.47;2.07;;;25.50;97.80;24.90;100682;;;;592562;238;23134;-84
2022/07/24 10:44:31;;;;;;;3.33;1.90;;;25.40;98.00;24.80;100696;;;;589991;240;23043;-84
2022/07/24 10:47:04;;;;;;;3.70;2.07;;;25.30;98.00;24.80;100685;;;;590258;240;24034;-87
2022/07/24 10:49:47;;;;;;;3.67;2.00;;;25.30;98.40;25.10;100693;;;;586644;240;23026;-84
2022/07/24 10:52:22;;;;;;;1.83;1.73;;;25.40;98.50;25.70;100692;;;;590096;240;23039;-85
2022/07/24 10:54:49;;;;;;;2.03;1.83;;;25.90;97.80;25.80;100688;;;;593230;238;23146;-85
2022/07/24 10:57:17;;;;;;;4.17;1.77;;;26.20;96.60;25.60;100694;;;;576918;243;23090;-84
2022/07/24 10:59:49;;;;;;;3.33;1.90;;;26.10;96.70;25.40;100701;;;;593376;238;23031;-84
2022/07/24 11:02:27;;;;;;;2.60;2.40;;;25.70;97.60;25.20;100696;;;;593132;238;23104;-83
2022/07/24 11:05:29;;;;;;;3.57;1.90;;;25.70;97.60;25.20;100693;;;;592822;238;23051;-84
2022/07/24 11:08:17;;;;;;;1.83;1.73;;;25.70;97.60;25.30;100698;;;;592473;242;23071;-83
2022/07/24 11:10:51;;;;;;;1.90;1.80;;;25.70;97.20;25.60;100691;;;;579884;242;23083;-83
2022/07/24 11:13:33;;;;;;;2.87;1.50;;;26.00;97.10;25.90;100689;;;;582372;243;23085;-84
2022/07/24 11:16:16;;;;;;;3.70;1.90;;;26.30;96.60;26.20;100699;;;;591678;243;23067;-85
2022/07/24 11:18:56;;;;;;;2.90;1.90;;;26.50;96.00;26.50;100696;;;;592085;242;24124;-87